createdAt,value
2017-12-10T00:00:56.436Z,0
2017-12-10T00:02:06.755Z,0
2017-12-10T00:03:17.021Z,0
2017-12-10T00:04:27.322Z,0
2017-12-10T00:05:36.981Z,0
2017-12-10T00:06:47.265Z,0
2017-12-10T00:07:57.540Z,0
2017-12-10T00:09:07.816Z,0
2017-12-10T00:10:17.431Z,0
2017-12-10T00:11:27.700Z,0
2017-12-10T00:12:38.924Z,0
2017-12-10T00:13:49.172Z,0
2017-12-10T00:14:59.430Z,0
2017-12-10T00:16:09.697Z,0
2017-12-10T00:17:19.792Z,0
2017-12-10T00:18:29.821Z,0
2017-12-10T00:19:39.884Z,0
2017-12-10T00:20:49.952Z,0
2017-12-10T00:21:59.433Z,0
2017-12-10T00:23:09.690Z,0
2017-12-10T00:24:19.685Z,0
2017-12-10T00:25:29.706Z,0
2017-12-10T00:26:40.047Z,0
2017-12-10T00:27:50.293Z,0
2017-12-10T00:29:32.441Z,0
2017-12-10T00:30:42.749Z,0
2017-12-10T00:31:53.067Z,0
2017-12-10T00:33:03.353Z,0
2017-12-10T00:34:13.648Z,0
2017-12-10T00:35:23.968Z,0
2017-12-10T00:36:34.000Z,0
2017-12-10T00:37:44.239Z,0
2017-12-10T00:38:54.480Z,0
2017-12-10T00:40:04.387Z,0
2017-12-10T00:41:14.569Z,0
2017-12-10T00:42:24.987Z,0
2017-12-10T00:43:35.374Z,0
2017-12-10T00:44:45.619Z,0
2017-12-10T00:45:55.879Z,0
2017-12-10T00:47:05.947Z,0
2017-12-10T00:48:16.232Z,0
2017-12-10T00:49:26.160Z,0
2017-12-10T00:50:36.490Z,0
2017-12-10T00:51:46.780Z,0
2017-12-10T00:52:57.021Z,0
2017-12-10T00:54:07.332Z,0
2017-12-10T00:55:17.410Z,0
2017-12-10T00:56:27.654Z,0
2017-12-10T00:57:37.922Z,0
2017-12-10T00:58:47.988Z,0
2017-12-10T00:59:58.244Z,0
2017-12-10T01:01:08.509Z,0
2017-12-10T01:02:18.493Z,0
2017-12-10T01:03:29.057Z,0
2017-12-10T01:04:39.353Z,0
2017-12-10T01:05:49.598Z,0
2017-12-10T01:06:59.576Z,0
2017-12-10T01:08:09.583Z,0
2017-12-10T01:09:19.847Z,0
2017-12-10T01:10:30.233Z,0
2017-12-10T01:11:40.515Z,0
2017-12-10T01:12:50.870Z,0
2017-12-10T01:14:01.110Z,0
2017-12-10T01:15:11.363Z,0
2017-12-10T01:16:21.601Z,0
2017-12-10T01:17:31.852Z,0
2017-12-10T01:18:41.894Z,0
2017-12-10T01:19:52.155Z,0
2017-12-10T01:21:02.429Z,0
2017-12-10T01:22:12.686Z,0
2017-12-10T01:23:23.006Z,0
2017-12-10T01:24:33.296Z,0
2017-12-10T01:25:43.251Z,0
2017-12-10T01:26:53.511Z,0
2017-12-10T01:28:03.831Z,0
2017-12-10T01:29:13.842Z,0
2017-12-10T01:30:23.865Z,0
2017-12-10T01:31:33.609Z,0
2017-12-10T01:32:43.956Z,0
2017-12-10T01:33:53.955Z,0
2017-12-10T01:35:04.453Z,0
2017-12-10T01:36:14.711Z,0
2017-12-10T01:37:24.332Z,0
2017-12-10T01:38:34.573Z,0
2017-12-10T01:39:44.862Z,0
2017-12-10T01:40:55.155Z,0
2017-12-10T01:42:05.401Z,0
2017-12-10T01:43:15.324Z,0
2017-12-10T01:44:25.590Z,0
2017-12-10T01:45:35.885Z,0
2017-12-10T01:46:45.903Z,0
2017-12-10T01:47:56.206Z,0
2017-12-10T01:49:06.514Z,0
2017-12-10T01:50:16.914Z,0
2017-12-10T01:51:26.908Z,0
2017-12-10T01:52:37.258Z,0
2017-12-10T01:53:47.627Z,0
2017-12-10T01:54:57.880Z,0
2017-12-10T01:56:09.107Z,0
2017-12-10T01:57:19.244Z,0
2017-12-10T01:58:29.494Z,0
2017-12-10T01:59:39.733Z,0
2017-12-10T02:00:49.975Z,0
2017-12-10T02:02:00.272Z,0
2017-12-10T02:03:10.559Z,0
2017-12-10T02:04:20.307Z,0
2017-12-10T02:05:30.303Z,0
2017-12-10T02:06:40.563Z,0
2017-12-10T02:07:50.793Z,0
2017-12-10T02:09:00.650Z,0
2017-12-10T02:10:10.946Z,0
2017-12-10T02:11:21.228Z,0
2017-12-10T02:12:31.565Z,0
2017-12-10T02:13:41.803Z,0
2017-12-10T02:14:51.676Z,0
2017-12-10T02:16:01.955Z,0
2017-12-10T02:17:12.206Z,0
2017-12-10T02:18:23.448Z,0
2017-12-10T02:19:33.835Z,0
2017-12-10T02:20:43.847Z,0
2017-12-10T02:21:54.100Z,0
2017-12-10T02:23:04.120Z,0
2017-12-10T02:24:14.143Z,0
2017-12-10T02:25:24.454Z,0
2017-12-10T02:26:34.743Z,0
2017-12-10T02:27:45.009Z,0
2017-12-10T02:28:55.311Z,0
2017-12-10T02:30:06.179Z,0
2017-12-10T02:31:16.199Z,0
2017-12-10T02:32:27.411Z,0
2017-12-10T02:33:37.666Z,0
2017-12-10T02:34:47.551Z,0
2017-12-10T02:35:57.843Z,0
2017-12-10T02:37:08.140Z,0
2017-12-10T02:38:18.417Z,0
2017-12-10T02:39:28.299Z,0
2017-12-10T02:40:38.278Z,0
2017-12-10T02:41:49.488Z,0
2017-12-10T02:42:59.836Z,0
2017-12-10T02:44:09.827Z,0
2017-12-10T02:45:20.186Z,0
2017-12-10T02:46:30.555Z,0
2017-12-10T02:47:40.522Z,0
2017-12-10T02:48:50.876Z,0
2017-12-10T02:50:01.187Z,0
2017-12-10T02:51:11.481Z,0
2017-12-10T02:52:21.473Z,0
2017-12-10T02:53:31.895Z,0
2017-12-10T02:54:42.193Z,0
2017-12-10T02:55:52.170Z,0
2017-12-10T02:57:02.428Z,0
2017-12-10T02:58:12.669Z,0
2017-12-10T02:59:22.911Z,0
2017-12-10T03:00:33.169Z,0
2017-12-10T03:01:43.423Z,0
2017-12-10T03:02:53.653Z,0
2017-12-10T03:04:03.518Z,0
2017-12-10T03:05:13.761Z,0
2017-12-10T03:06:24.014Z,0
2017-12-10T03:07:34.337Z,0
2017-12-10T03:08:44.366Z,0
2017-12-10T03:09:54.616Z,0
2017-12-10T03:11:04.611Z,0
2017-12-10T03:12:14.936Z,0
2017-12-10T03:13:25.184Z,0
2017-12-10T03:14:35.415Z,0
2017-12-10T03:15:45.686Z,0
2017-12-10T03:16:55.962Z,0
2017-12-10T03:18:06.386Z,0
2017-12-10T03:19:16.658Z,0
2017-12-10T03:20:26.916Z,0
2017-12-10T03:21:36.907Z,0
2017-12-10T03:22:47.239Z,0
2017-12-10T03:23:57.503Z,0
2017-12-10T03:25:07.893Z,0
2017-12-10T03:26:18.134Z,0
2017-12-10T03:27:28.413Z,0
2017-12-10T03:28:38.647Z,0
2017-12-10T03:29:48.905Z,0
2017-12-10T03:30:59.295Z,0
2017-12-10T03:32:09.547Z,0
2017-12-10T03:33:19.864Z,0
2017-12-10T03:34:29.833Z,0
2017-12-10T03:35:40.132Z,0
2017-12-10T03:36:50.140Z,0
2017-12-10T03:38:00.250Z,0
2017-12-10T03:39:10.218Z,0
2017-12-10T03:40:20.499Z,0
2017-12-10T03:41:30.528Z,0
2017-12-10T03:42:40.802Z,0
2017-12-10T03:43:50.785Z,0
2017-12-10T03:45:01.028Z,0
2017-12-10T03:46:11.277Z,0
2017-12-10T03:47:21.526Z,0
2017-12-10T03:48:31.800Z,0
2017-12-10T03:49:41.875Z,0
2017-12-10T03:50:52.216Z,0
2017-12-10T03:52:02.492Z,0
2017-12-10T03:53:12.754Z,0
2017-12-10T03:54:22.991Z,0
2017-12-10T03:55:33.229Z,0
2017-12-10T03:56:43.446Z,0
2017-12-10T03:57:53.720Z,0
2017-12-10T03:59:03.501Z,0
2017-12-10T04:00:13.734Z,0
2017-12-10T04:01:24.079Z,0
2017-12-10T04:02:33.786Z,0
2017-12-10T04:03:44.058Z,0
2017-12-10T04:04:54.095Z,0
2017-12-10T04:06:04.389Z,0
2017-12-10T04:07:14.765Z,0
2017-12-10T04:08:24.712Z,0
2017-12-10T04:09:34.939Z,0
2017-12-10T04:10:45.254Z,0
2017-12-10T04:11:55.483Z,0
2017-12-10T04:13:05.766Z,0
2017-12-10T04:14:16.022Z,0
2017-12-10T04:15:26.372Z,0
2017-12-10T04:16:36.633Z,0
2017-12-10T04:17:46.920Z,0
2017-12-10T04:18:56.941Z,0
2017-12-10T04:20:07.204Z,0
2017-12-10T04:21:17.453Z,0
2017-12-10T04:22:27.702Z,0
2017-12-10T04:23:37.693Z,0
2017-12-10T04:24:48.171Z,0
2017-12-10T04:25:58.238Z,0
2017-12-10T04:27:08.562Z,0
2017-12-10T04:28:18.437Z,0
2017-12-10T04:29:28.673Z,0
2017-12-10T04:30:38.907Z,0
2017-12-10T04:31:48.893Z,0
2017-12-10T04:32:58.859Z,0
2017-12-10T04:34:08.601Z,0
2017-12-10T04:35:18.886Z,0
2017-12-10T04:36:28.852Z,0
2017-12-10T04:37:39.097Z,0
2017-12-10T04:38:49.328Z,0
2017-12-10T04:39:59.316Z,0
2017-12-10T04:41:09.565Z,0
2017-12-10T04:42:19.557Z,0
2017-12-10T04:43:29.818Z,0
2017-12-10T04:44:40.086Z,0
2017-12-10T04:45:50.318Z,0
2017-12-10T04:47:00.566Z,0
2017-12-10T04:48:10.805Z,0
2017-12-10T04:49:21.034Z,0
2017-12-10T04:50:31.255Z,0
2017-12-10T04:51:41.232Z,0
2017-12-10T04:52:51.222Z,0
2017-12-10T04:54:01.191Z,0
2017-12-10T04:55:11.472Z,0
2017-12-10T04:56:21.461Z,0
2017-12-10T04:57:31.720Z,0
2017-12-10T04:58:41.379Z,0
2017-12-10T04:59:51.394Z,0
2017-12-10T05:01:01.402Z,0
2017-12-10T05:02:11.392Z,0
2017-12-10T05:03:21.686Z,0
2017-12-10T05:04:31.931Z,0
2017-12-10T05:05:41.913Z,0
2017-12-10T05:06:52.247Z,0
2017-12-10T05:08:02.511Z,0
2017-12-10T05:09:12.261Z,0
2017-12-10T05:10:22.143Z,0
2017-12-10T05:11:32.451Z,0
2017-12-10T05:12:42.778Z,0
2017-12-10T05:13:52.482Z,0
2017-12-10T05:15:02.731Z,0
2017-12-10T05:16:12.971Z,0
2017-12-10T05:17:23.329Z,0
2017-12-10T05:18:33.657Z,0
2017-12-10T05:19:43.907Z,0
2017-12-10T05:20:53.687Z,0
2017-12-10T05:22:03.691Z,0
2017-12-10T05:23:13.674Z,0
2017-12-10T05:24:23.673Z,0
2017-12-10T05:25:33.563Z,0
2017-12-10T05:26:43.825Z,0
2017-12-10T05:27:53.792Z,0
2017-12-10T05:29:04.033Z,0
2017-12-10T05:30:14.078Z,0
2017-12-10T05:31:24.194Z,0
2017-12-10T05:32:34.441Z,0
2017-12-10T05:33:44.789Z,0
2017-12-10T05:34:55.098Z,0
2017-12-10T05:36:05.357Z,0
2017-12-10T05:37:15.076Z,0
2017-12-10T05:38:25.380Z,0
2017-12-10T05:39:35.612Z,0
2017-12-10T05:40:45.864Z,0
2017-12-10T05:41:56.111Z,0
2017-12-10T05:43:06.352Z,0
2017-12-10T05:44:16.604Z,0
2017-12-10T05:45:26.878Z,0
2017-12-10T05:46:37.235Z,0
2017-12-10T05:47:47.490Z,0
2017-12-10T05:48:57.460Z,0
2017-12-10T05:50:07.698Z,0
2017-12-10T05:51:17.937Z,0
2017-12-10T05:52:28.207Z,0
2017-12-10T05:53:38.459Z,0
2017-12-10T05:54:48.932Z,0
2017-12-10T05:55:59.192Z,0
2017-12-10T05:57:09.436Z,0
2017-12-10T05:58:19.679Z,0
2017-12-10T05:59:29.720Z,0
2017-12-10T06:00:39.957Z,0
2017-12-10T06:01:50.001Z,0
2017-12-10T06:03:00.245Z,0
2017-12-10T06:04:10.599Z,0
2017-12-10T06:05:20.846Z,0
2017-12-10T06:06:31.139Z,0
2017-12-10T06:07:41.397Z,0
2017-12-10T06:08:51.448Z,0
2017-12-10T06:10:01.499Z,0
2017-12-10T06:11:11.502Z,0
2017-12-10T06:12:21.622Z,0
2017-12-10T06:13:32.053Z,0
2017-12-10T06:14:42.300Z,0
2017-12-10T06:15:52.316Z,0
2017-12-10T06:17:02.383Z,0
2017-12-10T06:18:12.742Z,0
2017-12-10T06:19:22.995Z,0
2017-12-10T06:20:32.900Z,0
2017-12-10T06:21:43.145Z,0
2017-12-10T06:22:53.129Z,0
2017-12-10T06:24:03.469Z,0
2017-12-10T06:25:13.414Z,0
2017-12-10T06:26:23.664Z,0
2017-12-10T06:27:33.947Z,0
2017-12-10T06:28:44.302Z,0
2017-12-10T06:29:54.270Z,0
2017-12-10T06:31:04.524Z,0
2017-12-10T06:32:14.802Z,0
2017-12-10T06:33:25.060Z,0
2017-12-10T06:34:35.358Z,4
2017-12-10T06:35:45.363Z,4
2017-12-10T06:36:55.606Z,0
2017-12-10T06:38:06.143Z,4
2017-12-10T06:39:16.390Z,4
2017-12-10T06:40:26.693Z,4
2017-12-10T06:41:37.897Z,8
2017-12-10T06:42:48.207Z,8
2017-12-10T06:43:58.254Z,8
2017-12-10T06:45:08.579Z,8
2017-12-10T06:46:18.184Z,8
2017-12-10T06:47:28.528Z,12
2017-12-10T06:48:38.505Z,16
2017-12-10T06:49:48.853Z,16
2017-12-10T06:50:59.121Z,20
2017-12-10T06:52:09.750Z,24
2017-12-10T06:53:20.034Z,32
2017-12-10T06:54:30.294Z,36
2017-12-10T06:55:40.542Z,44
2017-12-10T06:56:50.544Z,52
2017-12-10T06:58:00.833Z,60
2017-12-10T06:59:11.095Z,68
2017-12-10T07:00:21.344Z,80
2017-12-10T07:01:31.584Z,92
2017-12-10T07:02:41.532Z,108
2017-12-10T07:03:51.806Z,124
2017-12-10T07:05:02.140Z,136
2017-12-10T07:06:12.470Z,152
2017-12-10T07:07:22.464Z,172
2017-12-10T07:08:32.852Z,196
2017-12-10T07:09:42.818Z,216
2017-12-10T07:10:52.562Z,236
2017-12-10T07:12:02.575Z,256
2017-12-10T07:13:12.561Z,284
2017-12-10T07:14:22.940Z,304
2017-12-10T07:15:33.228Z,336
2017-12-10T07:16:43.459Z,364
2017-12-10T07:17:53.741Z,392
2017-12-10T07:19:04.007Z,424
2017-12-10T07:20:14.264Z,460
2017-12-10T07:21:24.536Z,488
2017-12-10T07:22:34.766Z,520
2017-12-10T07:23:44.816Z,560
2017-12-10T07:24:55.097Z,600
2017-12-10T07:26:05.376Z,640
2017-12-10T07:27:15.514Z,684
2017-12-10T07:28:25.764Z,728
2017-12-10T07:29:36.067Z,768
2017-12-10T07:30:46.338Z,816
2017-12-10T07:31:56.588Z,872
2017-12-10T07:33:07.098Z,936
2017-12-10T07:34:17.372Z,1024
2017-12-10T07:35:27.670Z,1128
2017-12-10T07:36:38.948Z,1248
2017-12-10T07:37:49.424Z,1340
2017-12-10T07:38:59.735Z,1416
2017-12-10T07:40:09.754Z,1500
2017-12-10T07:41:20.036Z,1572
2017-12-10T07:42:30.346Z,1604
2017-12-10T07:43:40.671Z,1628
2017-12-10T07:44:50.682Z,1668
2017-12-10T07:46:00.949Z,1700
2017-12-10T07:47:11.180Z,1664
2017-12-10T07:48:21.525Z,1656
2017-12-10T07:49:31.522Z,1708
2017-12-10T07:50:41.548Z,1772
2017-12-10T07:51:51.806Z,1764
2017-12-10T07:53:02.066Z,1740
2017-12-10T07:54:12.066Z,1808
2017-12-10T07:55:22.365Z,1948
2017-12-10T07:56:32.601Z,1964
2017-12-10T07:57:42.878Z,1952
2017-12-10T07:58:53.836Z,1940
2017-12-10T08:00:04.198Z,1912
2017-12-10T08:01:14.201Z,1920
2017-12-10T08:02:24.768Z,1984
2017-12-10T08:03:35.025Z,2052
2017-12-10T08:04:44.418Z,2052
2017-12-10T08:05:54.787Z,2096
2017-12-10T08:07:04.911Z,2000
2017-12-10T08:08:15.161Z,2108
2017-12-10T08:09:25.433Z,2216
2017-12-10T08:10:35.429Z,2308
2017-12-10T08:11:45.245Z,2312
2017-12-10T08:12:55.207Z,2388
2017-12-10T08:14:05.497Z,2872
2017-12-10T08:15:15.414Z,2968
2017-12-10T08:16:25.743Z,2708
2017-12-10T08:17:35.632Z,2116
2017-12-10T08:18:45.621Z,2104
2017-12-10T08:19:55.913Z,1856
2017-12-10T08:21:06.226Z,1664
2017-12-10T08:22:16.555Z,1620
2017-12-10T08:23:26.811Z,1616
2017-12-10T08:24:37.078Z,1704
2017-12-10T08:25:47.386Z,1828
2017-12-10T08:26:57.639Z,1956
2017-12-10T08:28:07.538Z,2012
2017-12-10T08:29:17.624Z,2000
2017-12-10T08:30:27.890Z,1800
2017-12-10T08:31:37.621Z,1556
2017-12-10T08:32:47.970Z,1580
2017-12-10T08:33:58.253Z,1780
2017-12-10T08:35:08.537Z,1700
2017-12-10T08:36:18.790Z,1432
2017-12-10T08:37:29.069Z,1356
2017-12-10T08:38:39.504Z,1204
2017-12-10T08:39:49.471Z,1152
2017-12-10T08:40:59.731Z,1240
2017-12-10T08:42:10.238Z,1128
2017-12-10T08:43:19.986Z,1380
2017-12-10T08:44:29.980Z,1292
2017-12-10T08:45:39.867Z,1252
2017-12-10T08:46:49.887Z,1108
2017-12-10T08:47:59.988Z,1144
2017-12-10T08:49:10.239Z,1328
2017-12-10T08:50:20.258Z,1432
2017-12-10T08:51:30.560Z,1380
2017-12-10T08:52:40.836Z,1608
2017-12-10T08:53:51.154Z,1700
2017-12-10T08:55:00.552Z,1672
2017-12-10T08:56:10.998Z,1656
2017-12-10T08:57:21.263Z,1588
2017-12-10T08:58:31.564Z,1544
2017-12-10T08:59:41.886Z,1648
2017-12-10T09:00:52.171Z,1748
2017-12-10T09:02:02.493Z,1712
2017-12-10T09:03:12.750Z,1528
2017-12-10T09:04:23.012Z,1384
2017-12-10T09:05:33.029Z,1436
2017-12-10T09:06:43.384Z,1620
2017-12-10T09:07:53.674Z,1848
2017-12-10T09:09:03.941Z,2028
2017-12-10T09:10:14.208Z,2268
2017-12-10T09:11:23.961Z,2040
2017-12-10T09:12:34.004Z,2168
2017-12-10T09:13:44.273Z,2356
2017-12-10T09:14:54.622Z,2608
2017-12-10T09:16:04.896Z,2476
2017-12-10T09:17:15.035Z,2288
2017-12-10T09:18:25.052Z,2220
2017-12-10T09:19:35.326Z,2148
2017-12-10T09:20:45.402Z,2164
2017-12-10T09:21:55.440Z,2096
2017-12-10T09:23:05.446Z,1924
2017-12-10T09:24:15.431Z,1940
2017-12-10T09:25:25.727Z,2088
2017-12-10T09:26:35.092Z,2304
2017-12-10T09:27:45.367Z,2464
2017-12-10T09:28:55.391Z,2528
2017-12-10T09:30:05.730Z,2668
2017-12-10T09:31:16.067Z,2888
2017-12-10T09:32:26.345Z,3092
2017-12-10T09:33:36.685Z,3244
2017-12-10T09:34:46.960Z,3312
2017-12-10T09:35:57.244Z,3112
2017-12-10T09:37:07.512Z,2716
2017-12-10T09:38:17.742Z,2484
2017-12-10T09:39:27.711Z,2552
2017-12-10T09:40:37.981Z,2320
2017-12-10T09:41:47.933Z,2096
2017-12-10T09:43:30.063Z,2116
2017-12-10T09:44:40.372Z,2296
2017-12-10T09:45:50.362Z,2296
2017-12-10T09:47:00.714Z,2240
2017-12-10T09:48:10.620Z,2412
2017-12-10T09:49:20.995Z,3084
2017-12-10T09:50:31.283Z,3516
2017-12-10T09:51:41.552Z,3788
2017-12-10T09:52:51.840Z,3652
2017-12-10T09:54:02.128Z,3376
2017-12-10T09:55:12.143Z,3276
2017-12-10T09:56:22.469Z,3244
2017-12-10T09:57:32.511Z,3408
2017-12-10T09:58:43.502Z,3636
2017-12-10T09:59:53.128Z,3760
2017-12-10T10:01:03.392Z,3720
2017-12-10T10:02:13.668Z,3496
2017-12-10T10:03:23.735Z,3220
2017-12-10T10:04:35.059Z,2964
2017-12-10T10:05:45.333Z,2876
2017-12-10T10:06:55.633Z,2932
2017-12-10T10:08:05.900Z,3008
2017-12-10T10:09:16.217Z,3160
2017-12-10T10:10:26.220Z,3404
2017-12-10T10:11:36.249Z,3512
2017-12-10T10:12:46.626Z,3528
2017-12-10T10:13:56.524Z,3624
2017-12-10T10:15:06.529Z,3632
2017-12-10T10:16:16.839Z,3456
2017-12-10T10:17:26.955Z,3332
2017-12-10T10:18:37.241Z,3168
2017-12-10T10:19:47.541Z,3216
2017-12-10T10:20:57.820Z,3500
2017-12-10T10:22:08.069Z,3516
2017-12-10T10:23:18.366Z,3516
2017-12-10T10:24:28.659Z,3544
2017-12-10T10:25:38.939Z,3448
2017-12-10T10:26:49.256Z,3240
2017-12-10T10:27:59.541Z,3120
2017-12-10T10:29:09.345Z,2964
2017-12-10T10:30:20.575Z,2752
2017-12-10T10:31:30.574Z,2640
2017-12-10T10:32:40.833Z,2664
2017-12-10T10:33:51.104Z,2784
2017-12-10T10:35:01.378Z,2376
2017-12-10T10:36:11.142Z,2252
2017-12-10T10:37:21.391Z,2136
2017-12-10T10:38:31.670Z,2156
2017-12-10T10:39:41.698Z,2560
2017-12-10T10:40:52.005Z,2560
2017-12-10T10:42:02.291Z,2428
2017-12-10T10:43:12.562Z,2336
2017-12-10T10:44:22.913Z,2256
2017-12-10T10:45:32.926Z,2288
2017-12-10T10:46:42.553Z,2400
2017-12-10T10:47:52.821Z,2816
2017-12-10T10:49:03.098Z,3344
2017-12-10T10:50:13.114Z,3480
2017-12-10T10:51:23.130Z,3620
2017-12-10T10:52:33.478Z,3752
2017-12-10T10:53:43.203Z,4008
2017-12-10T10:54:53.472Z,4240
2017-12-10T10:56:03.863Z,4296
2017-12-10T10:57:13.503Z,4268
2017-12-10T10:58:23.623Z,4256
2017-12-10T10:59:33.945Z,4180
2017-12-10T11:00:44.217Z,4152
2017-12-10T11:01:54.151Z,4252
2017-12-10T11:03:04.423Z,4280
2017-12-10T11:04:14.788Z,4108
2017-12-10T11:05:26.024Z,3980
2017-12-10T11:06:36.325Z,4096
2017-12-10T11:07:46.596Z,4296
2017-12-10T11:08:56.951Z,4476
2017-12-10T11:10:07.264Z,4676
2017-12-10T11:11:17.335Z,4836
2017-12-10T11:12:27.573Z,4940
2017-12-10T11:13:37.821Z,5080
2017-12-10T11:14:48.104Z,4952
2017-12-10T11:15:58.431Z,4856
2017-12-10T11:17:08.492Z,4908
2017-12-10T11:18:18.808Z,4900
2017-12-10T11:19:29.180Z,4732
2017-12-10T11:20:39.434Z,4696
2017-12-10T11:21:49.759Z,4584
2017-12-10T11:22:59.706Z,4596
2017-12-10T11:24:09.780Z,4664
2017-12-10T11:25:19.490Z,4624
2017-12-10T11:26:29.400Z,4532
2017-12-10T11:27:39.716Z,4512
2017-12-10T11:28:50.006Z,4652
2017-12-10T11:30:00.355Z,4860
2017-12-10T11:31:10.615Z,5076
2017-12-10T11:32:20.881Z,5312
2017-12-10T11:33:30.951Z,5376
2017-12-10T11:34:41.038Z,5108
2017-12-10T11:35:51.389Z,4704
2017-12-10T11:37:01.670Z,4500
2017-12-10T11:38:11.941Z,4460
2017-12-10T11:39:21.595Z,4464
2017-12-10T11:40:31.934Z,4476
2017-12-10T11:41:42.184Z,4492
2017-12-10T11:42:52.487Z,4480
2017-12-10T11:44:02.667Z,4484
2017-12-10T11:45:13.016Z,4428
2017-12-10T11:46:23.295Z,4308
2017-12-10T11:47:33.615Z,4128
2017-12-10T11:48:43.900Z,3920
2017-12-10T11:49:54.176Z,3724
2017-12-10T11:51:04.512Z,3612
2017-12-10T11:52:14.514Z,3568
2017-12-10T11:53:24.841Z,3548
2017-12-10T11:54:34.911Z,3528
2017-12-10T11:55:45.198Z,3516
2017-12-10T11:56:55.517Z,3548
2017-12-10T11:58:05.539Z,3604
2017-12-10T11:59:15.823Z,3716
2017-12-10T12:00:26.091Z,3856
2017-12-10T12:02:08.243Z,4040
2017-12-10T12:03:18.536Z,4136
2017-12-10T12:04:28.846Z,4196
2017-12-10T12:05:39.219Z,4228
2017-12-10T12:06:49.532Z,4188
2017-12-10T12:07:59.736Z,4116
2017-12-10T12:09:10.047Z,4028
2017-12-10T12:10:20.380Z,3896
2017-12-10T12:11:30.397Z,3772
2017-12-10T12:12:40.526Z,3640
2017-12-10T12:13:50.805Z,3508
2017-12-10T12:15:01.115Z,3364
2017-12-10T12:16:11.517Z,3220
2017-12-10T12:17:21.817Z,3100
2017-12-10T12:18:32.125Z,3004
2017-12-10T12:19:42.463Z,2936
2017-12-10T12:20:52.772Z,2892
2017-12-10T12:22:03.160Z,2884
2017-12-10T12:23:13.464Z,2892
2017-12-10T12:24:23.750Z,2904
2017-12-10T12:25:34.018Z,2916
2017-12-10T12:26:44.423Z,2912
2017-12-10T12:27:54.708Z,2892
2017-12-10T12:29:04.995Z,2864
2017-12-10T12:30:15.336Z,2816
2017-12-10T12:31:25.625Z,2760
2017-12-10T12:32:35.739Z,2680
2017-12-10T12:33:46.011Z,2576
2017-12-10T12:34:56.320Z,2460
2017-12-10T12:36:07.562Z,2340
2017-12-10T12:37:17.923Z,2236
2017-12-10T12:38:28.260Z,2136
2017-12-10T12:39:38.590Z,2076
2017-12-10T12:40:49.702Z,2044
2017-12-10T12:41:59.784Z,2028
2017-12-10T12:43:09.846Z,2024
2017-12-10T12:44:19.967Z,2048
2017-12-10T12:45:30.270Z,2100
2017-12-10T12:46:40.299Z,2168
2017-12-10T12:47:50.375Z,2208
2017-12-10T12:49:01.669Z,2196
2017-12-10T12:50:12.041Z,2136
2017-12-10T12:51:22.327Z,2052
2017-12-10T12:52:32.631Z,1968
2017-12-10T12:53:42.946Z,1920
2017-12-10T12:54:53.069Z,1888
2017-12-10T12:56:03.483Z,1872
2017-12-10T12:57:13.900Z,1856
2017-12-10T12:58:24.232Z,1832
2017-12-10T12:59:34.520Z,1796
2017-12-10T13:00:44.810Z,1764
2017-12-10T13:01:56.097Z,1736
2017-12-10T13:03:06.375Z,1700
2017-12-10T13:04:16.706Z,1664
2017-12-10T13:05:26.998Z,1628
2017-12-10T13:06:37.581Z,1572
2017-12-10T13:07:47.878Z,1504
2017-12-10T13:08:57.918Z,1428
2017-12-10T13:10:08.209Z,1352
2017-12-10T13:11:18.234Z,1292
2017-12-10T13:12:28.547Z,1244
2017-12-10T13:13:38.851Z,1196
2017-12-10T13:14:49.143Z,1152
2017-12-10T13:15:59.471Z,1120
2017-12-10T13:17:09.850Z,1096
2017-12-10T13:18:20.214Z,1072
2017-12-10T13:19:30.496Z,1056
2017-12-10T13:20:40.661Z,1036
2017-12-10T13:21:50.952Z,1000
2017-12-10T13:23:01.302Z,952
2017-12-10T13:24:11.718Z,908
2017-12-10T13:25:22.030Z,880
2017-12-10T13:26:32.360Z,884
2017-12-10T13:27:42.767Z,884
2017-12-10T13:28:53.055Z,884
2017-12-10T13:30:03.357Z,876
2017-12-10T13:31:13.389Z,876
2017-12-10T13:32:23.067Z,900
2017-12-10T13:33:32.986Z,932
2017-12-10T13:34:43.274Z,956
2017-12-10T13:35:53.559Z,952
2017-12-10T13:37:03.844Z,932
2017-12-10T13:38:14.175Z,896
2017-12-10T13:39:24.469Z,852
2017-12-10T13:40:34.824Z,828
2017-12-10T13:41:45.162Z,828
2017-12-10T13:42:55.548Z,832
2017-12-10T13:44:05.846Z,832
2017-12-10T13:45:48.068Z,840
2017-12-10T13:46:58.162Z,832
2017-12-10T13:48:08.440Z,820
2017-12-10T13:49:18.712Z,796
2017-12-10T13:50:29.031Z,772
2017-12-10T13:51:39.092Z,728
2017-12-10T13:52:49.399Z,692
2017-12-10T13:54:00.663Z,648
2017-12-10T13:55:10.958Z,616
2017-12-10T13:56:20.881Z,596
2017-12-10T13:57:31.196Z,580
2017-12-10T13:58:41.554Z,572
2017-12-10T13:59:51.831Z,568
2017-12-10T14:01:02.257Z,564
2017-12-10T14:02:12.368Z,560
2017-12-10T14:03:22.676Z,540
2017-12-10T14:04:32.994Z,516
2017-12-10T14:05:43.299Z,492
2017-12-10T14:06:53.623Z,468
2017-12-10T14:08:03.922Z,452
2017-12-10T14:09:14.291Z,436
2017-12-10T14:10:24.087Z,420
2017-12-10T14:11:33.866Z,392
2017-12-10T14:12:44.173Z,364
2017-12-10T14:13:54.243Z,348
2017-12-10T14:15:04.567Z,328
2017-12-10T14:16:14.860Z,316
2017-12-10T14:17:25.166Z,296
2017-12-10T14:18:35.042Z,272
2017-12-10T14:19:45.446Z,252
2017-12-10T14:20:55.609Z,232
2017-12-10T14:22:05.960Z,212
2017-12-10T14:23:15.673Z,204
2017-12-10T14:24:29.164Z,184
2017-12-10T14:25:39.544Z,168
2017-12-10T14:26:49.974Z,160
2017-12-10T14:28:00.020Z,148
2017-12-10T14:29:10.597Z,140
2017-12-10T14:30:20.918Z,132
2017-12-10T14:31:31.313Z,132
2017-12-10T14:32:41.727Z,132
2017-12-10T14:33:52.059Z,132
2017-12-10T14:35:02.101Z,132
2017-12-10T14:36:12.473Z,124
2017-12-10T14:37:23.790Z,124
2017-12-10T14:38:34.284Z,116
2017-12-10T14:39:44.597Z,104
2017-12-10T14:40:54.941Z,96
2017-12-10T14:42:05.516Z,96
2017-12-10T14:43:15.612Z,84
2017-12-10T14:44:26.979Z,76
2017-12-10T14:45:39.073Z,68
2017-12-10T14:46:49.213Z,64
2017-12-10T14:47:59.557Z,56
2017-12-10T14:49:09.849Z,52
2017-12-10T14:50:20.149Z,40
2017-12-10T14:51:30.537Z,36
2017-12-10T14:52:40.876Z,32
2017-12-10T14:53:51.306Z,28
2017-12-10T14:55:01.690Z,24
2017-12-10T14:56:12.025Z,20
2017-12-10T14:57:22.351Z,20
2017-12-10T14:58:32.664Z,20
2017-12-10T14:59:42.626Z,16
2017-12-10T15:00:52.704Z,16
2017-12-10T15:02:02.468Z,16
2017-12-10T15:03:13.098Z,16
2017-12-10T15:04:24.105Z,16
2017-12-10T15:05:34.799Z,16
2017-12-10T15:06:45.081Z,12
2017-12-10T15:07:54.904Z,12
2017-12-10T15:09:05.016Z,12
2017-12-10T15:10:15.384Z,8
2017-12-10T15:11:25.999Z,8
2017-12-10T15:12:36.521Z,8
2017-12-10T15:13:47.062Z,4
2017-12-10T15:14:57.453Z,8
2017-12-10T15:16:07.501Z,4
2017-12-10T15:17:17.715Z,4
2017-12-10T15:18:28.114Z,8
2017-12-10T15:19:38.484Z,4
2017-12-10T15:20:48.805Z,4
2017-12-10T15:21:58.857Z,4
2017-12-10T15:23:09.143Z,4
2017-12-10T15:24:19.790Z,4
2017-12-10T15:25:30.124Z,0
2017-12-10T15:26:40.490Z,0
2017-12-10T15:27:50.523Z,0
2017-12-10T15:29:01.360Z,4
2017-12-10T15:30:11.798Z,4
2017-12-10T15:31:22.080Z,4
2017-12-10T15:32:32.189Z,4
2017-12-10T15:33:43.647Z,4
2017-12-10T15:34:53.948Z,4
2017-12-10T15:36:04.488Z,4
2017-12-10T15:37:14.852Z,4
2017-12-10T15:38:24.637Z,4
2017-12-10T15:39:36.190Z,4
2017-12-10T15:40:46.871Z,4
2017-12-10T15:41:57.214Z,4
2017-12-10T15:43:07.525Z,4
2017-12-10T15:44:17.605Z,4
2017-12-10T15:45:28.013Z,4
2017-12-10T15:46:38.300Z,4
2017-12-10T15:47:48.666Z,4
2017-12-10T15:48:58.986Z,4
2017-12-10T15:50:10.257Z,4
2017-12-10T15:51:20.708Z,4
2017-12-10T15:52:31.122Z,0
2017-12-10T15:53:41.538Z,0
2017-12-10T15:54:51.572Z,0
2017-12-10T15:56:01.928Z,0
2017-12-10T15:57:12.461Z,0
2017-12-10T15:58:22.664Z,0
2017-12-10T15:59:33.003Z,0
2017-12-10T16:00:43.072Z,0
2017-12-10T16:01:53.119Z,0
2017-12-10T16:03:03.596Z,0
2017-12-10T16:04:13.936Z,0
2017-12-10T16:05:24.355Z,0
2017-12-10T16:06:34.653Z,0
2017-12-10T16:07:44.932Z,0
2017-12-10T16:08:54.658Z,0
2017-12-10T16:10:04.699Z,0
2017-12-10T16:11:15.009Z,0
2017-12-10T16:12:25.079Z,0
2017-12-10T16:13:35.468Z,0
2017-12-10T16:14:45.871Z,0
2017-12-10T16:15:56.207Z,0
2017-12-10T16:17:06.552Z,0
2017-12-10T16:18:16.988Z,0
2017-12-10T16:19:31.119Z,0
2017-12-10T16:20:41.444Z,0
2017-12-10T16:21:51.769Z,0
2017-12-10T16:23:02.263Z,0
2017-12-10T16:24:12.878Z,0
2017-12-10T16:25:25.705Z,0
2017-12-10T16:26:38.472Z,0
2017-12-10T16:27:49.058Z,0
2017-12-10T16:29:04.393Z,0
2017-12-10T16:30:23.602Z,0
2017-12-10T16:31:34.516Z,0
2017-12-10T16:32:44.844Z,0
2017-12-10T16:33:55.331Z,0